Time;durP1;ratioP1;P1;durP2;ratioP2;P2;SDS_P1;SDS_P2;PMS_P1;PMS_P2;Temp;Humidity;BMP_temperature;BMP_pressure;BME280_temperature;BME280_humidity;BME280_pressure;Samples;Min_cycle;Max_cycle;Signal;HPM_P1;HPM_P2
2023/10/14 00:01:35;;;;;;;5.67;5.27;;;21.90;21.20;;;;;;5091769;28;20485;-86
2023/10/14 00:04:07;;;;;;;6.63;6.03;;;21.90;21.00;;;;;;5091897;28;20458;-86
2023/10/14 00:06:38;;;;;;;6.40;6.10;;;22.00;22.50;;;;;;5098527;28;20524;-87
2023/10/14 00:09:11;;;;;;;10.87;9.90;;;22.00;25.30;;;;;;5095576;28;20450;-87
2023/10/14 00:11:43;;;;;;;9.87;9.07;;;21.90;29.20;;;;;;5101077;28;21009;-87
2023/10/14 00:14:15;;;;;;;11.23;10.33;;;22.00;31.20;;;;;;5094580;28;20449;-85
2023/10/14 00:16:49;;;;;;;10.70;10.00;;;22.00;36.20;;;;;;5099361;28;20464;-86
2023/10/14 00:19:19;;;;;;;11.10;10.43;;;22.00;51.20;;;;;;5094904;28;20445;-87
2023/10/14 00:21:50;;;;;;;11.63;10.80;;;22.10;39.30;;;;;;5096862;28;20506;-86
2023/10/14 00:24:26;;;;;;;10.07;9.57;;;22.00;40.80;;;;;;5094729;28;20489;-85
2023/10/14 00:26:55;;;;;;;11.27;10.27;;;22.10;40.90;;;;;;5091827;28;20462;-85
2023/10/14 00:29:29;;;;;;;10.53;9.93;;;22.10;40.00;;;;;;5094852;28;20464;-83
2023/10/14 00:31:58;;;;;;;10.13;9.67;;;22.00;39.40;;;;;;5095690;28;20485;-83
2023/10/14 00:34:29;;;;;;;11.17;10.53;;;22.00;40.90;;;;;;5087180;28;20457;-83
2023/10/14 00:36:59;;;;;;;12.07;11.37;;;21.90;41.60;;;;;;5093599;28;20537;-83
2023/10/14 00:39:28;;;;;;;11.47;10.87;;;21.90;41.60;;;;;;5090882;28;20496;-82
2023/10/14 00:41:58;;;;;;;13.37;12.67;;;21.80;45.00;;;;;;5098661;28;21326;-79
2023/10/14 00:44:26;;;;;;;12.93;12.43;;;21.70;47.20;;;;;;5092504;28;20453;-82
2023/10/14 00:46:56;;;;;;;16.03;14.77;;;21.80;49.50;;;;;;5098847;28;20470;-83
2023/10/14 00:49:30;;;;;;;15.60;14.90;;;21.70;57.10;;;;;;5103119;28;20461;-82
2023/10/14 00:52:06;;;;;;;15.80;15.03;;;21.60;62.10;;;;;;5102658;28;20491;-83
2023/10/14 00:54:57;;;;;;;15.07;14.47;;;21.50;68.00;;;;;;5092824;28;20535;-84
2023/10/14 00:57:37;;;;;;;16.30;15.60;;;21.40;75.40;;;;;;5113956;27;20552;-83
2023/10/14 01:00:09;;;;;;;16.87;16.00;;;21.50;90.60;;;;;;5094875;28;20452;-84
2023/10/14 01:02:38;;;;;;;17.73;16.83;;;21.30;98.60;;;;;;5099383;28;20441;-86
2023/10/14 01:05:10;;;;;;;17.00;16.10;;;21.20;99.90;;;;;;5099080;28;20453;-86
2023/10/14 01:07:40;;;;;;;17.20;16.30;;;21.20;99.90;;;;;;5100085;28;20442;-84
2023/10/14 01:10:11;;;;;;;17.47;16.33;;;21.00;99.90;;;;;;5100585;28;20496;-83
2023/10/14 01:12:44;;;;;;;17.90;16.80;;;20.90;99.90;;;;;;5098152;28;20467;-83
2023/10/14 01:15:19;;;;;;;18.40;17.27;;;20.90;99.90;;;;;;5103455;28;20941;-84
2023/10/14 01:17:52;;;;;;;18.13;17.23;;;21.00;99.90;;;;;;5102771;28;20514;-84
2023/10/14 01:20:36;;;;;;;17.27;16.50;;;20.90;99.90;;;;;;5099867;28;21334;-83
2023/10/14 01:23:12;;;;;;;18.27;17.07;;;21.00;99.90;;;;;;5097220;28;20446;-86
2023/10/14 01:25:47;;;;;;;18.10;16.97;;;21.00;99.90;;;;;;5095383;28;20483;-84
2023/10/14 01:28:21;;;;;;;17.73;16.93;;;20.90;99.90;;;;;;5095746;28;20719;-85
2023/10/14 01:31:14;;;;;;;18.50;17.40;;;20.90;99.90;;;;;;5095007;28;20473;-86
2023/10/14 01:33:42;;;;;;;17.83;16.60;;;20.70;99.90;;;;;;5105674;28;20492;-85
2023/10/14 01:36:11;;;;;;;17.10;16.30;;;20.60;99.90;;;;;;5092474;28;20799;-85
2023/10/14 01:38:41;;;;;;;18.30;17.10;;;20.60;99.90;;;;;;5100594;28;21022;-85
2023/10/14 01:41:10;;;;;;;18.50;17.60;;;20.60;99.90;;;;;;5100059;28;20473;-85
2023/10/14 01:43:39;;;;;;;17.37;16.47;;;20.60;99.90;;;;;;5103166;28;20447;-86
2023/10/14 01:46:09;;;;;;;17.73;16.60;;;20.40;99.90;;;;;;5103074;28;20553;-84
2023/10/14 01:48:39;;;;;;;17.57;16.60;;;20.50;99.90;;;;;;5099103;28;20462;-84
2023/10/14 01:51:07;;;;;;;18.10;17.10;;;20.50;99.90;;;;;;5092994;28;20474;-85
2023/10/14 01:53:38;;;;;;;17.77;16.63;;;20.40;99.90;;;;;;5097788;28;20511;-85
2023/10/14 01:56:08;;;;;;;17.83;16.63;;;20.50;99.90;;;;;;5095603;28;20456;-85
2023/10/14 01:58:37;;;;;;;18.17;17.07;;;20.40;99.90;;;;;;5100576;28;20441;-85
2023/10/14 02:01:14;;;;;;;16.07;15.17;;;20.40;99.90;;;;;;5094622;28;20496;-85
2023/10/14 02:03:46;;;;;;;16.30;15.40;;;20.40;99.90;;;;;;5097684;28;20570;-85
2023/10/14 02:06:20;;;;;;;16.30;15.50;;;20.40;99.90;;;;;;5096183;28;20484;-85
2023/10/14 02:08:51;;;;;;;16.57;15.63;;;20.40;99.90;;;;;;5099009;28;20457;-86
2023/10/14 02:11:21;;;;;;;16.90;15.90;;;20.40;99.90;;;;;;5095026;28;20470;-86
2023/10/14 02:13:51;;;;;;;16.43;15.43;;;20.30;99.90;;;;;;5100863;28;20472;-87
2023/10/14 02:16:24;;;;;;;16.50;15.60;;;20.30;99.90;;;;;;5092044;28;20489;-87
2023/10/14 02:19:00;;;;;;;16.00;15.30;;;20.30;99.90;;;;;;5093574;28;20655;-86
2023/10/14 02:21:33;;;;;;;16.13;15.23;;;20.40;99.90;;;;;;5096776;28;20470;-86
2023/10/14 02:24:04;;;;;;;16.33;15.50;;;20.40;99.90;;;;;;5100748;28;20962;-86
2023/10/14 02:26:34;;;;;;;16.40;15.60;;;20.40;99.90;;;;;;5100495;28;20560;-86
2023/10/14 02:29:06;;;;;;;16.33;15.23;;;20.40;99.90;;;;;;5098067;28;20468;-87
2023/10/14 02:31:36;;;;;;;16.33;15.43;;;20.30;99.90;;;;;;5096473;28;20472;-86
2023/10/14 02:34:06;;;;;;;16.73;15.80;;;20.30;99.90;;;;;;5099852;28;21082;-88
2023/10/14 02:36:36;;;;;;;16.73;15.70;;;20.30;99.90;;;;;;5100832;28;20460;-87
2023/10/14 02:39:14;;;;;;;17.20;16.23;;;20.30;99.90;;;;;;5098387;28;20457;-87
2023/10/14 02:41:58;;;;;;;15.60;14.80;;;20.30;99.90;;;;;;5103777;28;20502;-87
2023/10/14 02:44:30;;;;;;;16.40;15.50;;;20.40;99.90;;;;;;5102379;28;20463;-87
2023/10/14 02:47:04;;;;;;;16.40;15.53;;;20.30;99.90;;;;;;5099329;28;20864;-86
2023/10/14 02:49:37;;;;;;;16.50;15.40;;;20.40;99.90;;;;;;5100160;28;20459;-85
2023/10/14 02:52:11;;;;;;;16.40;15.60;;;20.30;99.90;;;;;;5097641;28;21032;-87
2023/10/14 02:54:44;;;;;;;15.13;14.43;;;20.40;99.90;;;;;;5098791;28;20465;-85
2023/10/14 02:57:23;;;;;;;17.03;16.10;;;20.40;99.90;;;;;;5104273;28;21104;-88
2023/10/14 02:59:55;;;;;;;16.70;16.00;;;20.30;99.90;;;;;;5107170;28;20455;-87
2023/10/14 03:02:27;;;;;;;17.40;16.57;;;20.40;99.90;;;;;;5104841;28;20858;-84
2023/10/14 03:05:08;;;;;;;15.40;14.63;;;20.40;99.90;;;;;;5099680;28;20543;-85
2023/10/14 03:07:50;;;;;;;16.60;15.70;;;20.40;99.90;;;;;;5102013;28;20443;-85
2023/10/14 03:10:28;;;;;;;17.63;16.53;;;20.40;99.90;;;;;;5100012;28;20566;-86
2023/10/14 03:12:58;;;;;;;17.10;16.20;;;20.40;99.90;;;;;;5096624;28;21005;-87
2023/10/14 03:15:34;;;;;;;16.20;15.30;;;20.40;99.90;;;;;;5097795;28;20474;-85
2023/10/14 03:18:02;;;;;;;16.50;15.70;;;20.40;99.90;;;;;;5100323;28;20469;-85
2023/10/14 03:20:39;;;;;;;16.60;15.70;;;20.40;99.90;;;;;;5098314;28;20992;-86
2023/10/14 03:23:12;;;;;;;16.97;16.10;;;20.40;99.90;;;;;;5102845;28;20461;-85
2023/10/14 03:25:41;;;;;;;15.67;14.97;;;20.40;99.90;;;;;;5099642;28;20455;-85
2023/10/14 03:28:14;;;;;;;17.23;16.10;;;20.40;99.90;;;;;;5090536;28;20460;-84
2023/10/14 03:30:47;;;;;;;16.00;15.13;;;20.40;99.90;;;;;;5095803;28;20457;-85
2023/10/14 03:33:19;;;;;;;16.60;15.80;;;20.30;99.90;;;;;;5096605;28;20463;-85
2023/10/14 03:35:56;;;;;;;15.73;15.03;;;20.40;99.90;;;;;;5101141;28;20455;-85
2023/10/14 03:38:39;;;;;;;16.47;15.50;;;20.40;99.90;;;;;;5101098;28;20818;-86
2023/10/14 03:41:17;;;;;;;16.80;16.00;;;20.50;99.90;;;;;;5098539;28;20533;-86
2023/10/14 03:43:54;;;;;;;17.37;16.27;;;20.40;99.90;;;;;;5094811;28;20458;-86
2023/10/14 03:46:29;;;;;;;17.53;16.63;;;20.30;99.90;;;;;;5100628;28;21299;-87
2023/10/14 03:48:57;;;;;;;17.60;16.60;;;20.30;99.90;;;;;;5097187;28;20454;-86
2023/10/14 03:51:27;;;;;;;17.93;16.93;;;20.40;99.90;;;;;;5098160;28;20518;-86
2023/10/14 03:53:56;;;;;;;17.30;16.50;;;20.40;99.90;;;;;;5102774;28;20541;-86
2023/10/14 03:56:26;;;;;;;18.07;16.97;;;20.30;99.90;;;;;;5100228;28;20453;-86
2023/10/14 03:58:57;;;;;;;18.33;17.30;;;20.30;99.90;;;;;;5099677;28;20550;-87
2023/10/14 04:01:33;;;;;;;18.47;17.37;;;20.30;99.90;;;;;;5095066;28;20570;-87
2023/10/14 04:04:14;;;;;;;18.23;17.23;;;20.30;99.90;;;;;;5095463;28;20453;-87
2023/10/14 04:06:51;;;;;;;17.90;16.80;;;20.30;99.90;;;;;;5101074;28;20453;-86
2023/10/14 04:09:24;;;;;;;18.40;17.20;;;20.20;99.90;;;;;;5097600;28;20430;-85
2023/10/14 04:11:58;;;;;;;17.43;16.50;;;20.20;99.90;;;;;;5092839;28;20478;-86
2023/10/14 04:14:35;;;;;;;18.03;16.90;;;20.20;99.90;;;;;;5099057;28;20454;-86
2023/10/14 04:17:18;;;;;;;18.70;17.43;;;20.10;99.90;;;;;;5099311;28;21147;-86
2023/10/14 04:19:47;;;;;;;18.30;17.10;;;20.10;99.90;;;;;;5102118;28;20491;-86
2023/10/14 04:22:31;;;;;;;17.77;16.70;;;20.10;99.90;;;;;;5093980;28;21159;-86
2023/10/14 04:25:16;;;;;;;17.77;16.60;;;20.20;99.90;;;;;;5101451;28;21140;-87
2023/10/14 04:28:03;;;;;;;18.60;17.50;;;20.30;99.90;;;;;;5105261;28;20541;-87
2023/10/14 04:30:33;;;;;;;17.87;16.83;;;20.20;99.90;;;;;;5095528;28;20474;-86
2023/10/14 04:33:16;;;;;;;17.97;16.80;;;20.10;99.90;;;;;;5106067;28;20482;-85
2023/10/14 04:35:58;;;;;;;18.37;17.17;;;20.20;99.90;;;;;;5105442;28;20499;-85
2023/10/14 04:38:37;;;;;;;16.93;16.03;;;20.20;99.90;;;;;;5100286;28;20449;-85
2023/10/14 04:41:12;;;;;;;17.77;16.70;;;20.10;99.90;;;;;;5104067;28;20514;-85
2023/10/14 04:46:45;;;;;;;16.70;15.80;;;20.20;99.90;;;;;;5110218;28;20457;-86
2023/10/14 04:49:17;;;;;;;15.93;15.23;;;20.20;99.90;;;;;;5102060;28;21016;-87
2023/10/14 04:51:48;;;;;;;16.97;16.07;;;20.30;99.90;;;;;;5096293;28;20492;-86
2023/10/14 04:54:20;;;;;;;16.43;15.47;;;20.30;99.90;;;;;;5101726;28;20492;-87
2023/10/14 04:56:49;;;;;;;16.23;15.43;;;20.30;99.90;;;;;;5104165;28;20997;-87
2023/10/14 04:59:24;;;;;;;15.60;14.53;;;20.30;99.90;;;;;;5100839;28;20457;-86
2023/10/14 05:01:56;;;;;;;16.33;15.20;;;20.20;99.90;;;;;;5102712;28;20474;-85
2023/10/14 05:04:30;;;;;;;16.00;15.00;;;20.20;99.90;;;;;;5098992;28;20472;-84
2023/10/14 05:07:04;;;;;;;15.00;14.30;;;20.20;99.90;;;;;;5098348;28;20468;-84
2023/10/14 05:09:39;;;;;;;15.30;14.40;;;20.20;99.90;;;;;;5099886;28;20461;-84
2023/10/14 05:12:10;;;;;;;14.47;13.87;;;20.30;99.90;;;;;;5098785;28;20467;-84
2023/10/14 05:14:38;;;;;;;15.20;14.30;;;20.30;99.90;;;;;;5104263;28;20471;-86
2023/10/14 05:17:16;;;;;;;15.90;14.87;;;20.30;99.90;;;;;;5102349;28;20472;-85
2023/10/14 05:19:47;;;;;;;15.37;14.40;;;20.30;99.90;;;;;;5100891;28;20635;-85
2023/10/14 05:22:19;;;;;;;15.40;14.50;;;20.30;99.90;;;;;;5102512;28;20497;-84
2023/10/14 05:24:49;;;;;;;14.40;13.80;;;20.30;99.90;;;;;;5092439;28;20454;-78
2023/10/14 05:27:19;;;;;;;14.63;13.67;;;20.30;99.90;;;;;;5096419;27;20531;-79
2023/10/14 05:29:50;;;;;;;15.07;14.18;;;20.30;99.90;;;;;;5094291;28;20832;-78
2023/10/14 05:32:26;;;;;;;14.43;13.63;;;20.30;99.90;;;;;;5095892;28;20223;-79
2023/10/14 05:34:54;;;;;;;15.17;14.37;;;20.40;99.90;;;;;;5091755;28;20486;-79
2023/10/14 05:37:23;;;;;;;14.90;14.10;;;20.40;99.90;;;;;;5094357;28;20455;-78
2023/10/14 05:39:54;;;;;;;15.07;14.10;;;20.40;99.90;;;;;;5096426;28;20476;-79
2023/10/14 05:42:24;;;;;;;14.83;13.93;;;20.40;99.90;;;;;;5099062;28;20461;-78
2023/10/14 05:44:57;;;;;;;16.00;14.50;;;20.30;99.90;;;;;;5094382;28;20447;-79
2023/10/14 05:47:36;;;;;;;15.30;13.97;;;20.40;99.90;;;;;;5095540;28;20448;-86
2023/10/14 05:50:08;;;;;;;15.17;14.37;;;20.20;99.90;;;;;;5102064;28;20465;-85
2023/10/14 05:52:38;;;;;;;16.50;15.50;;;20.10;99.90;;;;;;5096906;28;20487;-84
2023/10/14 05:55:09;;;;;;;16.97;16.10;;;20.20;99.90;;;;;;5096966;28;20486;-85
2023/10/14 05:57:41;;;;;;;16.17;15.23;;;20.20;99.90;;;;;;5094157;28;20467;-79
2023/10/14 06:00:20;;;;;;;15.70;14.60;;;20.20;99.90;;;;;;5088570;28;20598;-79
2023/10/14 06:02:52;;;;;;;16.93;15.87;;;20.20;99.90;;;;;;5094345;28;20461;-80
2023/10/14 06:05:21;;;;;;;16.23;15.30;;;20.20;99.90;;;;;;5088943;28;20454;-80
2023/10/14 06:07:50;;;;;;;15.83;15.03;;;20.20;99.90;;;;;;5097149;28;20456;-79
2023/10/14 06:10:22;;;;;;;16.00;15.07;;;20.20;99.90;;;;;;5094431;28;20491;-79
2023/10/14 06:12:51;;;;;;;16.40;15.30;;;20.30;99.90;;;;;;5093758;28;20542;-80
2023/10/14 06:15:20;;;;;;;16.17;14.97;;;20.20;99.90;;;;;;5092512;28;20467;-79
2023/10/14 06:17:48;;;;;;;16.37;15.57;;;20.20;99.90;;;;;;5092738;28;20986;-80
2023/10/14 06:20:20;;;;;;;15.63;14.90;;;20.30;99.90;;;;;;5090937;28;20665;-80
2023/10/14 06:22:48;;;;;;;16.10;15.10;;;20.30;99.90;;;;;;5090457;27;20618;-81
2023/10/14 06:25:17;;;;;;;15.83;15.00;;;20.30;99.90;;;;;;5090440;28;20458;-82
2023/10/14 06:27:46;;;;;;;16.63;15.83;;;20.20;99.90;;;;;;5094911;27;20452;-81
2023/10/14 06:30:22;;;;;;;16.17;15.07;;;20.20;99.90;;;;;;5088439;28;20578;-81
2023/10/14 06:32:53;;;;;;;18.30;16.53;;;20.20;99.90;;;;;;5091490;27;21034;-81
2023/10/14 06:35:26;;;;;;;16.60;15.70;;;20.30;99.90;;;;;;5083075;28;20481;-82
2023/10/14 06:37:55;;;;;;;16.70;15.80;;;20.30;99.90;;;;;;5094596;27;20461;-81
2023/10/14 06:40:23;;;;;;;16.03;15.23;;;20.40;99.90;;;;;;5099203;28;20889;-82
2023/10/14 06:42:53;;;;;;;17.13;16.10;;;20.30;99.90;;;;;;5099773;28;20556;-81
2023/10/14 06:45:31;;;;;;;16.73;15.83;;;20.30;99.90;;;;;;5099518;28;20442;-81
2023/10/14 06:48:03;;;;;;;16.93;16.10;;;20.20;99.90;;;;;;5099879;27;20455;-82
2023/10/14 06:50:33;;;;;;;17.47;16.40;;;20.20;99.90;;;;;;5099362;28;20465;-81
2023/10/14 06:53:07;;;;;;;17.70;16.80;;;20.30;99.90;;;;;;5095255;28;22328;-80
2023/10/14 06:55:39;;;;;;;16.20;15.40;;;20.20;99.90;;;;;;5088714;28;20516;-81
2023/10/14 06:58:08;;;;;;;16.80;16.00;;;20.20;99.90;;;;;;5094673;28;20464;-81
2023/10/14 07:00:38;;;;;;;17.67;16.30;;;20.30;99.90;;;;;;5096821;28;21138;-81
2023/10/14 07:03:10;;;;;;;17.73;16.63;;;20.30;99.90;;;;;;5094995;28;20545;-80
2023/10/14 07:05:46;;;;;;;17.63;15.83;;;20.30;99.90;;;;;;5091114;28;20448;-81
2023/10/14 07:08:15;;;;;;;17.60;16.70;;;20.30;99.90;;;;;;5095531;28;20952;-80
2023/10/14 07:10:43;;;;;;;16.60;15.80;;;20.30;99.90;;;;;;5094766;27;21212;-81
2023/10/14 07:13:12;;;;;;;16.20;15.17;;;20.30;99.90;;;;;;5093668;27;20533;-80
2023/10/14 07:15:42;;;;;;;16.43;15.63;;;20.30;99.90;;;;;;5094009;28;20486;-80
2023/10/14 07:18:13;;;;;;;16.87;15.90;;;20.40;99.90;;;;;;5092095;28;20531;-81
2023/10/14 07:20:42;;;;;;;16.27;15.30;;;20.50;99.90;;;;;;5094574;27;20470;-81
2023/10/14 07:23:11;;;;;;;16.67;15.83;;;20.50;99.90;;;;;;5091901;28;21275;-82
2023/10/14 07:25:40;;;;;;;17.00;15.97;;;20.70;99.90;;;;;;5091387;27;20463;-81
2023/10/14 07:28:13;;;;;;;18.80;17.20;;;20.90;99.90;;;;;;5091928;28;20468;-82
2023/10/14 07:30:46;;;;;;;18.50;16.77;;;21.30;99.90;;;;;;5090701;28;20473;-82
2023/10/14 07:33:16;;;;;;;17.30;16.30;;;21.50;99.90;;;;;;5091819;28;20449;-83
2023/10/14 07:35:47;;;;;;;16.60;15.60;;;21.50;99.90;;;;;;5095802;28;20477;-82
2023/10/14 07:38:15;;;;;;;15.50;14.70;;;21.40;99.90;;;;;;5094499;28;20534;-81
2023/10/14 07:40:43;;;;;;;15.33;14.43;;;21.30;99.90;;;;;;5092451;28;20477;-81
2023/10/14 07:43:11;;;;;;;15.20;14.50;;;21.30;99.90;;;;;;5092937;28;20456;-80
2023/10/14 07:45:43;;;;;;;16.37;15.37;;;21.30;99.90;;;;;;5090606;28;20624;-82
2023/10/14 07:48:17;;;;;;;14.40;13.90;;;21.10;99.90;;;;;;5091412;28;20556;-81
2023/10/14 07:50:48;;;;;;;14.10;13.50;;;21.10;99.90;;;;;;5091698;28;21432;-80
2023/10/14 07:53:22;;;;;;;15.10;14.33;;;21.00;99.90;;;;;;5097352;28;20555;-80
2023/10/14 07:55:52;;;;;;;14.43;13.90;;;21.00;99.90;;;;;;5094506;28;20479;-80
2023/10/14 07:58:24;;;;;;;13.67;12.97;;;20.90;99.90;;;;;;5097391;28;20751;-80
2023/10/14 08:00:53;;;;;;;15.97;15.20;;;20.90;99.90;;;;;;5091622;28;20513;-81
2023/10/14 08:03:23;;;;;;;12.97;12.50;;;20.90;99.90;;;;;;5094463;28;20458;-81
2023/10/14 08:05:59;;;;;;;13.27;12.77;;;20.70;99.90;;;;;;5092574;28;20507;-80
2023/10/14 08:08:31;;;;;;;13.37;12.87;;;20.60;99.90;;;;;;5097127;28;21129;-80
2023/10/14 08:11:00;;;;;;;12.77;12.27;;;20.60;99.90;;;;;;5091031;28;20472;-83
2023/10/14 08:13:31;;;;;;;12.47;11.77;;;20.60;99.90;;;;;;5094256;28;20452;-80
2023/10/14 08:15:59;;;;;;;12.23;11.73;;;20.60;99.90;;;;;;5092918;28;20552;-81
2023/10/14 08:18:27;;;;;;;12.40;11.47;;;20.50;99.90;;;;;;5084376;28;21015;-82
2023/10/14 08:20:58;;;;;;;12.33;11.70;;;20.60;99.90;;;;;;5089424;28;20573;-81
2023/10/14 08:23:29;;;;;;;11.80;11.30;;;20.50;99.90;;;;;;5092569;28;20570;-81
2023/10/14 08:25:59;;;;;;;12.03;11.63;;;20.50;99.90;;;;;;5093480;28;20804;-81
2023/10/14 08:28:28;;;;;;;13.07;12.57;;;20.40;99.90;;;;;;5095239;28;20449;-80
2023/10/14 08:30:57;;;;;;;15.13;14.27;;;20.50;99.90;;;;;;5091317;28;20573;-81
2023/10/14 08:33:28;;;;;;;13.73;13.13;;;20.60;99.90;;;;;;5095838;28;20480;-81
2023/10/14 08:35:57;;;;;;;16.17;14.70;;;20.60;99.90;;;;;;5093574;28;20507;-81
2023/10/14 08:38:27;;;;;;;15.48;14.70;;;20.60;99.90;;;;;;5092612;28;20444;-78
2023/10/14 08:40:59;;;;;;;16.20;15.30;;;21.50;99.90;;;;;;5093275;28;20221;-81
2023/10/14 08:43:30;;;;;;;16.20;15.17;;;22.10;99.90;;;;;;5090711;28;21027;-82
2023/10/14 08:46:00;;;;;;;17.37;16.57;;;23.20;99.90;;;;;;5090457;28;21130;-82
2023/10/14 08:48:30;;;;;;;16.23;15.43;;;24.30;99.90;;;;;;5094757;28;20450;-83
2023/10/14 08:50:59;;;;;;;16.20;15.10;;;25.00;99.90;;;;;;5094918;28;20484;-81
2023/10/14 08:53:30;;;;;;;15.80;15.00;;;25.30;99.90;;;;;;5096543;28;20454;-81
2023/10/14 08:55:58;;;;;;;16.03;15.17;;;25.60;99.90;;;;;;5099589;28;20469;-80
2023/10/14 08:58:28;;;;;;;16.60;15.63;;;25.80;99.90;;;;;;5101732;28;20464;-81
2023/10/14 09:00:57;;;;;;;16.17;15.27;;;25.30;99.90;;;;;;5101672;28;20859;-80
2023/10/14 09:03:26;;;;;;;15.23;14.53;;;24.40;99.90;;;;;;5096510;28;20453;-82
2023/10/14 09:05:54;;;;;;;16.23;15.60;;;23.80;99.90;;;;;;5100244;28;20507;-82
2023/10/14 09:08:25;;;;;;;15.77;14.70;;;23.20;99.90;;;;;;5103830;28;20446;-81
2023/10/14 09:10:53;;;;;;;15.63;14.83;;;22.90;99.90;;;;;;5103528;28;20507;-81
2023/10/14 09:13:22;;;;;;;14.20;13.70;;;22.60;99.90;;;;;;5104491;28;20456;-81
2023/10/14 09:15:51;;;;;;;15.63;14.80;;;22.70;99.90;;;;;;5100612;28;20474;-82
2023/10/14 09:18:21;;;;;;;14.57;14.07;;;23.70;99.90;;;;;;5097599;28;20530;-82
2023/10/14 09:20:54;;;;;;;15.90;14.90;;;24.90;99.90;;;;;;5097229;28;20495;-82
2023/10/14 09:23:29;;;;;;;14.80;14.10;;;25.30;99.90;;;;;;5100409;28;20580;-81
2023/10/14 09:25:59;;;;;;;15.53;14.50;;;24.70;99.90;;;;;;5097517;27;20445;-81
2023/10/14 09:28:29;;;;;;;12.67;12.17;;;24.10;99.90;;;;;;5099799;28;20453;-80
2023/10/14 09:30:58;;;;;;;12.73;12.13;;;23.50;99.90;;;;;;5101708;28;20469;-81
2023/10/14 09:33:29;;;;;;;11.23;10.93;;;22.80;99.90;;;;;;5101584;28;20466;-81
2023/10/14 09:36:02;;;;;;;11.70;11.30;;;22.20;99.90;;;;;;5097863;28;20437;-81
2023/10/14 09:38:32;;;;;;;11.60;11.20;;;21.70;99.90;;;;;;5094129;28;20481;-81
2023/10/14 09:41:03;;;;;;;11.13;10.93;;;21.40;99.90;;;;;;5099123;28;20484;-80
2023/10/14 09:43:32;;;;;;;11.47;11.10;;;21.10;99.90;;;;;;5097449;28;20553;-80
2023/10/14 09:46:03;;;;;;;12.00;11.60;;;20.90;99.90;;;;;;5093636;28;20541;-81
2023/10/14 09:48:34;;;;;;;11.70;11.50;;;20.80;99.90;;;;;;5095569;28;20434;-80
2023/10/14 09:51:04;;;;;;;11.50;11.20;;;20.70;99.90;;;;;;5096916;28;20560;-80
2023/10/14 09:53:35;;;;;;;10.57;10.37;;;20.60;99.90;;;;;;5095156;28;20454;-80
2023/10/14 09:56:07;;;;;;;10.30;10.10;;;20.40;99.90;;;;;;5100712;28;20504;-81
2023/10/14 09:58:37;;;;;;;10.80;10.53;;;20.30;99.90;;;;;;5093412;28;20469;-80
2023/10/14 10:01:06;;;;;;;11.33;11.13;;;20.30;99.90;;;;;;5093831;28;20477;-80
2023/10/14 10:03:38;;;;;;;11.00;10.80;;;20.30;99.90;;;;;;5093440;28;20467;-80
2023/10/14 10:06:17;;;;;;;11.03;10.73;;;20.20;99.90;;;;;;5095106;28;20474;-80
2023/10/14 10:09:25;;;;;;;10.70;10.50;;;20.20;99.90;;;;;;5098129;28;20446;-81
2023/10/14 10:11:58;;;;;;;10.33;10.13;;;20.10;99.90;;;;;;5090407;28;20480;-80
2023/10/14 10:14:28;;;;;;;10.00;9.80;;;20.10;99.90;;;;;;5094229;28;20472;-80
2023/10/14 10:17:00;;;;;;;10.30;10.10;;;20.00;99.90;;;;;;5093966;28;20661;-80
2023/10/14 10:20:09;;;;;;;9.80;9.70;;;20.00;99.90;;;;;;5093142;28;20450;-80
2023/10/14 10:22:43;;;;;;;10.00;9.80;;;19.90;99.90;;;;;;5093800;28;20450;-79
2023/10/14 10:25:14;;;;;;;10.20;10.00;;;19.80;99.90;;;;;;5089719;28;20883;-80
2023/10/14 10:27:49;;;;;;;10.20;10.00;;;19.70;99.90;;;;;;5089668;28;21008;-81
2023/10/14 10:30:19;;;;;;;9.90;9.80;;;19.70;99.90;;;;;;5094221;28;20487;-80
2023/10/14 10:32:50;;;;;;;9.90;9.70;;;19.70;99.90;;;;;;5096340;28;20540;-81
2023/10/14 10:35:19;;;;;;;10.20;10.00;;;19.60;99.90;;;;;;5091404;28;20466;-80
2023/10/14 10:37:50;;;;;;;10.70;10.50;;;19.60;99.90;;;;;;5094703;28;20642;-81
2023/10/14 10:40:25;;;;;;;10.60;10.40;;;19.50;99.90;;;;;;5094485;28;20497;-80
2023/10/14 10:42:57;;;;;;;10.90;10.50;;;19.50;99.90;;;;;;5095207;28;20480;-81
2023/10/14 10:45:29;;;;;;;11.00;10.80;;;19.50;99.90;;;;;;5097201;28;20518;-80
2023/10/14 10:47:59;;;;;;;10.33;10.13;;;19.40;99.90;;;;;;5089723;27;20942;-81
2023/10/14 10:50:28;;;;;;;10.10;9.90;;;19.20;99.90;;;;;;5095309;28;20476;-81
2023/10/14 10:53:16;;;;;;;10.60;10.30;;;19.20;99.90;;;;;;5091019;28;20454;-81
2023/10/14 10:55:47;;;;;;;10.40;10.20;;;19.20;99.90;;;;;;5078623;28;20458;-80
2023/10/14 10:58:17;;;;;;;10.40;10.20;;;19.30;99.90;;;;;;5091415;28;20449;-80
2023/10/14 11:00:47;;;;;;;10.30;10.10;;;19.30;99.90;;;;;;5091486;28;20465;-80
2023/10/14 11:03:17;;;;;;;10.30;10.10;;;19.20;99.90;;;;;;5094667;28;20454;-80
2023/10/14 11:05:47;;;;;;;10.00;9.80;;;19.20;99.90;;;;;;5088816;28;20867;-80
2023/10/14 11:08:16;;;;;;;10.20;10.00;;;19.10;99.90;;;;;;5095299;28;20521;-80
2023/10/14 11:10:48;;;;;;;10.20;9.90;;;19.00;99.90;;;;;;5090541;28;20471;-80
2023/10/14 11:13:18;;;;;;;10.50;10.30;;;19.00;99.90;;;;;;5093109;28;20448;-79
2023/10/14 11:15:48;;;;;;;10.20;10.00;;;18.80;1.00;;;;;;5092905;28;20465;-81
2023/10/14 11:18:18;;;;;;;10.20;10.00;;;18.80;1.00;;;;;;5093494;28;20485;-81
2023/10/14 11:21:05;;;;;;;10.27;10.07;;;18.80;1.00;;;;;;5092445;28;20619;-80
2023/10/14 11:23:38;;;;;;;11.17;10.77;;;18.80;1.00;;;;;;5090546;28;20453;-81
2023/10/14 11:26:11;;;;;;;11.00;10.80;;;18.70;1.00;;;;;;5095223;28;21146;-87
2023/10/14 11:28:45;;;;;;;10.53;10.33;;;18.60;1.00;;;;;;5102176;28;20457;-88
2023/10/14 11:31:14;;;;;;;10.67;10.47;;;18.70;1.00;;;;;;5097601;28;20470;-88
2023/10/14 11:33:46;;;;;;;11.77;11.47;;;18.80;1.00;;;;;;5099128;28;20454;-88
2023/10/14 11:36:17;;;;;;;10.93;10.60;;;18.80;1.00;;;;;;5103124;28;20932;-88
2023/10/14 11:38:48;;;;;;;11.00;10.70;;;18.80;1.00;;;;;;5102226;28;20470;-87
2023/10/14 11:41:17;;;;;;;11.47;11.13;;;18.90;31.70;;;;;;5099843;28;20474;-88
2023/10/14 11:43:47;;;;;;;11.33;11.10;;;18.90;1.00;;;;;;5096802;28;20452;-89
2023/10/14 11:46:17;;;;;;;11.60;11.40;;;18.90;1.00;;;;;;5099730;28;20488;-89
2023/10/14 11:48:47;;;;;;;11.40;11.20;;;18.90;1.00;;;;;;5100218;28;20450;-89
2023/10/14 11:51:19;;;;;;;12.20;12.00;;;18.90;61.50;;;;;;5095064;28;20501;-88
2023/10/14 11:53:53;;;;;;;11.80;11.60;;;18.90;1.00;;;;;;5099284;28;20449;-86
2023/10/14 11:56:21;;;;;;;12.30;12.00;;;18.90;99.90;;;;;;5096929;28;20431;-86
2023/10/14 11:58:51;;;;;;;11.30;11.00;;;18.90;99.90;;;;;;5096361;28;20546;-86
2023/10/14 12:01:23;;;;;;;12.27;11.77;;;18.90;99.90;;;;;;5095794;28;20534;-86
2023/10/14 12:03:53;;;;;;;11.47;11.17;;;18.90;1.00;;;;;;5096626;28;20476;-86
2023/10/14 12:06:21;;;;;;;11.47;11.17;;;18.80;1.00;;;;;;5094767;28;20923;-86
2023/10/14 12:08:51;;;;;;;10.20;10.00;;;18.70;17.30;;;;;;5097036;28;20450;-86
2023/10/14 12:11:21;;;;;;;10.23;9.93;;;18.70;1.00;;;;;;5099859;28;20570;-86
2023/10/14 12:13:52;;;;;;;10.37;10.17;;;18.70;38.30;;;;;;5096765;28;20489;-85
2023/10/14 12:16:21;;;;;;;10.30;10.10;;;18.70;1.00;;;;;;5100724;28;20457;-87
2023/10/14 12:18:54;;;;;;;9.83;9.63;;;18.70;1.00;;;;;;5096925;28;20481;-86
2023/10/14 12:21:23;;;;;;;10.30;10.00;;;18.70;31.90;;;;;;5095543;28;20587;-87
2023/10/14 12:23:54;;;;;;;10.30;10.10;;;18.60;1.00;;;;;;5092151;28;20458;-85
2023/10/14 12:26:27;;;;;;;10.00;9.80;;;18.60;1.00;;;;;;5088815;28;20468;-84
2023/10/14 12:29:09;;;;;;;9.80;9.60;;;18.60;1.00;;;;;;5096682;28;20450;-86
2023/10/14 12:31:43;;;;;;;9.90;9.70;;;18.60;1.00;;;;;;5096994;28;20481;-88
2023/10/14 12:34:13;;;;;;;9.90;9.70;;;18.50;1.00;;;;;;5096509;28;21253;-89
2023/10/14 12:36:42;;;;;;;9.70;9.60;;;18.50;1.00;;;;;;5086570;28;20451;-87
2023/10/14 12:39:19;;;;;;;9.80;9.60;;;18.50;1.00;;;;;;5091938;28;20545;-88
2023/10/14 12:41:49;;;;;;;10.10;9.90;;;18.40;1.00;;;;;;5099171;28;20479;-88
2023/10/14 12:44:21;;;;;;;10.10;9.90;;;18.40;1.00;;;;;;5094580;28;20454;-85
2023/10/14 12:46:49;;;;;;;10.20;10.00;;;18.40;1.00;;;;;;5098461;28;20461;-86
2023/10/14 12:49:22;;;;;;;10.10;9.90;;;18.40;1.00;;;;;;5099434;28;20480;-88
2023/10/14 12:51:57;;;;;;;10.27;10.07;;;18.30;1.00;;;;;;5095813;28;20485;-88
2023/10/14 12:54:29;;;;;;;10.07;9.87;;;18.30;1.00;;;;;;5098171;28;20460;-89
2023/10/14 12:56:58;;;;;;;10.33;10.13;;;18.20;1.00;;;;;;5102921;28;20445;-87